Time;durP1;ratioP1;P1;durP2;ratioP2;P2;SDS_P1;SDS_P2;PMS_P1;PMS_P2;Temp;Humidity;BMP_temperature;BMP_pressure;BME280_temperature;BME280_humidity;BME280_pressure;Samples;Min_cycle;Max_cycle;Signal;HPM_P1;HPM_P2
2022/01/06 00:01:57;;;;;;;10.75;7.05;;;0.30;99.90;;;;;;4989941;28;20045;-85
2022/01/06 00:04:22;;;;;;;10.35;7.15;;;0.30;99.90;;;;;;4998750;28;20058;-83
2022/01/06 00:06:48;;;;;;;10.63;7.32;;;0.30;99.90;;;;;;5010219;28;20023;-84
2022/01/06 00:09:17;;;;;;;12.63;8.23;;;0.30;99.90;;;;;;4998942;28;20109;-86
2022/01/06 00:11:44;;;;;;;11.07;7.63;;;0.30;99.90;;;;;;4999630;28;20101;-83
2022/01/06 00:14:25;;;;;;;12.93;7.32;;;0.30;99.90;;;;;;4992617;28;20062;-87
2022/01/06 00:24:49;;;;;;;11.98;6.97;;;0.30;99.90;;;;;;4997678;28;20045;-85
2022/01/06 00:27:15;;;;;;;11.07;6.68;;;0.30;99.90;;;;;;4999570;28;20472;-86
2022/01/06 00:29:42;;;;;;;8.90;6.07;;;0.30;99.90;;;;;;5001234;28;20031;-86
2022/01/06 00:32:08;;;;;;;10.50;6.47;;;0.30;99.90;;;;;;5002095;28;20045;-85
2022/01/06 00:34:35;;;;;;;10.02;7.15;;;0.30;99.90;;;;;;4998533;28;20029;-85
2022/01/06 00:37:02;;;;;;;11.15;6.82;;;0.30;99.90;;;;;;5001712;28;20082;-85
2022/01/06 00:39:29;;;;;;;7.22;5.95;;;0.30;99.90;;;;;;4999352;28;20022;-85
2022/01/06 00:41:56;;;;;;;10.70;7.10;;;0.40;99.90;;;;;;5000207;28;20050;-85
2022/01/06 00:44:23;;;;;;;;;;;0.30;99.90;;;;;;5008149;28;20045;-85
2022/01/06 00:46:49;;;;;;;12.20;6.88;;;0.30;99.90;;;;;;5006836;28;19910;-86
2022/01/06 00:49:17;;;;;;;12.60;7.53;;;0.30;99.90;;;;;;5001111;28;20034;-87
2022/01/06 00:51:43;;;;;;;10.95;6.97;;;0.30;99.90;;;;;;5000018;28;20090;-86
2022/01/06 00:54:10;;;;;;;8.52;6.38;;;0.30;99.90;;;;;;5002784;28;20118;-87
2022/01/06 00:56:36;;;;;;;9.45;7.18;;;0.40;99.90;;;;;;5003669;28;20018;-87
2022/01/06 00:59:02;;;;;;;9.63;7.40;;;0.30;99.90;;;;;;5000199;28;20084;-87
2022/01/06 01:01:28;;;;;;;9.93;7.13;;;0.30;99.90;;;;;;5003109;28;20082;-87
2022/01/06 01:03:55;;;;;;;9.50;7.20;;;0.30;99.90;;;;;;5006635;28;20484;-87
2022/01/06 01:06:20;;;;;;;11.57;7.93;;;0.40;99.90;;;;;;5005828;28;20018;-85
2022/01/06 01:08:46;;;;;;;12.88;7.93;;;0.40;99.90;;;;;;5000220;28;20307;-88
2022/01/06 01:11:12;;;;;;;16.52;8.30;;;0.40;99.90;;;;;;5001124;28;20069;-89
2022/01/06 01:13:54;;;;;;;11.65;7.40;;;0.40;99.90;;;;;;4997503;28;20030;-86
2022/01/06 01:16:25;;;;;;;9.63;6.65;;;0.40;99.90;;;;;;5001326;28;20033;-88
2022/01/06 01:18:51;;;;;;;9.48;7.07;;;0.40;99.90;;;;;;5006718;28;20030;-88
2022/01/06 01:21:22;;;;;;;10.70;7.10;;;0.40;99.90;;;;;;5018965;28;20027;-81
2022/01/06 01:23:48;;;;;;;10.13;6.40;;;0.40;99.90;;;;;;5018599;28;20022;-87
2022/01/06 01:26:14;;;;;;;10.93;7.05;;;0.40;99.90;;;;;;4999242;28;20072;-89
2022/01/06 01:28:46;;;;;;;10.90;6.75;;;0.40;99.90;;;;;;4999144;28;20519;-88
2022/01/06 01:31:31;;;;;;;10.60;6.07;;;0.40;99.90;;;;;;5004429;28;20026;-86
2022/01/06 01:33:58;;;;;;;10.85;6.50;;;0.40;99.90;;;;;;5014224;28;20103;-87
2022/01/06 01:36:25;;;;;;;8.25;6.28;;;0.40;99.90;;;;;;5014545;28;20085;-89
2022/01/06 01:38:51;;;;;;;11.88;6.75;;;0.40;99.90;;;;;;5006705;28;20054;-85
2022/01/06 01:41:18;;;;;;;8.90;5.57;;;0.40;99.90;;;;;;5009637;28;20055;-85
2022/01/06 01:43:46;;;;;;;10.20;5.07;;;0.40;99.90;;;;;;5002270;28;20117;-87
2022/01/06 01:46:16;;;;;;;11.27;6.60;;;0.40;99.90;;;;;;4997695;28;20506;-88
2022/01/06 01:48:46;;;;;;;9.35;5.85;;;0.40;99.90;;;;;;5004429;28;20023;-87
2022/01/06 01:51:12;;;;;;;8.63;6.07;;;0.40;99.90;;;;;;5004263;28;20468;-87
2022/01/06 01:53:39;;;;;;;8.30;5.07;;;0.40;99.90;;;;;;5004965;28;20027;-84
2022/01/06 01:56:10;;;;;;;12.02;6.03;;;0.40;99.90;;;;;;5019277;28;20026;-87
2022/01/06 01:58:37;;;;;;;7.75;5.65;;;0.40;99.90;;;;;;5002263;28;20038;-85
2022/01/06 02:01:04;;;;;;;7.32;5.00;;;0.40;99.90;;;;;;4998549;28;20080;-85
2022/01/06 02:03:30;;;;;;;9.00;6.07;;;0.40;99.90;;;;;;4997993;28;20073;-87
2022/01/06 02:05:56;;;;;;;7.57;5.00;;;0.40;99.90;;;;;;5004698;28;20033;-87
2022/01/06 02:08:22;;;;;;;12.18;5.80;;;0.40;99.90;;;;;;5000961;28;20034;-85
2022/01/06 02:10:48;;;;;;;6.82;4.93;;;0.40;99.90;;;;;;4996149;28;20061;-86
2022/01/06 02:13:15;;;;;;;6.22;5.13;;;0.40;99.90;;;;;;4996655;28;20110;-85
2022/01/06 02:15:41;;;;;;;7.70;5.60;;;0.40;99.90;;;;;;4996969;28;20026;-85
2022/01/06 02:18:06;;;;;;;8.15;5.07;;;0.40;99.90;;;;;;4998222;28;20133;-86
2022/01/06 02:20:32;;;;;;;6.88;5.50;;;0.40;99.90;;;;;;4997055;28;20483;-85
2022/01/06 02:23:01;;;;;;;8.27;5.18;;;0.40;99.90;;;;;;4995462;28;20046;-85
2022/01/06 02:25:28;;;;;;;9.05;4.97;;;0.40;99.90;;;;;;4992988;28;20046;-85
2022/01/06 02:27:55;;;;;;;7.25;4.40;;;0.50;99.90;;;;;;4994184;28;20026;-84
2022/01/06 02:30:22;;;;;;;5.38;4.47;;;0.40;99.90;;;;;;4994981;28;20034;-84
2022/01/06 02:32:49;;;;;;;7.22;4.88;;;0.40;99.90;;;;;;4996954;28;20042;-83
2022/01/06 02:35:17;;;;;;;9.32;4.95;;;0.40;99.90;;;;;;5006574;28;20038;-86
2022/01/06 02:37:43;;;;;;;5.05;3.42;;;0.40;99.90;;;;;;5010318;28;20028;-83
2022/01/06 02:40:14;;;;;;;7.03;5.65;;;0.40;99.90;;;;;;4994744;28;20026;-84
2022/01/06 02:42:43;;;;;;;6.63;4.45;;;0.40;99.90;;;;;;4994355;28;20030;-83
2022/01/06 02:45:09;;;;;;;5.80;3.42;;;0.40;99.90;;;;;;4994200;28;20026;-83
2022/01/06 02:47:35;;;;;;;5.07;3.65;;;0.50;99.90;;;;;;4994290;28;20102;-84
2022/01/06 02:50:02;;;;;;;6.22;3.63;;;0.40;99.90;;;;;;4994184;28;20089;-83
2022/01/06 02:52:28;;;;;;;7.18;4.03;;;0.40;99.90;;;;;;4993516;28;20080;-83
2022/01/06 02:54:53;;;;;;;6.07;4.15;;;0.50;99.90;;;;;;4994912;28;20027;-85
2022/01/06 02:57:19;;;;;;;5.68;3.63;;;0.50;99.90;;;;;;4994281;28;20026;-83
2022/01/06 02:59:45;;;;;;;7.30;3.95;;;0.50;99.90;;;;;;4994736;28;20030;-85
2022/01/06 03:02:11;;;;;;;4.55;3.40;;;0.40;99.90;;;;;;4994426;28;20452;-86
2022/01/06 03:04:37;;;;;;;6.10;4.22;;;0.50;99.90;;;;;;4996426;28;20038;-86
2022/01/06 03:07:04;;;;;;;5.65;3.83;;;0.50;99.90;;;;;;4997609;28;20026;-84
2022/01/06 03:09:38;;;;;;;10.82;4.97;;;0.50;99.90;;;;;;4998088;28;20061;-89
2022/01/06 03:12:07;;;;;;;5.57;3.53;;;0.50;99.90;;;;;;4998553;28;20455;-87
2022/01/06 03:14:33;;;;;;;5.45;4.38;;;0.50;99.90;;;;;;4998975;28;20026;-88
2022/01/06 03:16:59;;;;;;;7.80;4.35;;;0.40;99.90;;;;;;5006956;28;20074;-85
2022/01/06 03:19:25;;;;;;;5.60;3.97;;;0.40;99.90;;;;;;5016352;28;20007;-86
2022/01/06 03:21:50;;;;;;;6.47;3.80;;;0.40;99.90;;;;;;5006746;28;20069;-86
2022/01/06 03:24:16;;;;;;;5.28;3.13;;;0.40;99.90;;;;;;4996046;28;20109;-88
2022/01/06 03:26:42;;;;;;;5.57;3.17;;;0.50;99.90;;;;;;4993771;28;20026;-86
2022/01/06 03:29:08;;;;;;;3.33;2.13;;;0.40;99.90;;;;;;4995307;28;20130;-87
2022/01/06 03:31:34;;;;;;;2.67;1.90;;;0.40;99.90;;;;;;5016313;28;20030;-86
2022/01/06 03:34:00;;;;;;;4.65;2.20;;;0.40;99.90;;;;;;5035237;28;20960;-82
2022/01/06 03:36:26;;;;;;;3.42;2.65;;;0.40;99.90;;;;;;5037362;28;20084;-87
2022/01/06 03:38:51;;;;;;;4.45;1.70;;;0.40;99.90;;;;;;5005359;28;20102;-87
2022/01/06 03:41:17;;;;;;;3.20;1.95;;;0.40;99.90;;;;;;5029952;28;20050;-85
2022/01/06 03:43:43;;;;;;;2.58;1.75;;;0.40;99.90;;;;;;5023745;28;20054;-85
2022/01/06 03:46:09;;;;;;;2.45;1.70;;;0.40;99.90;;;;;;5019831;28;20032;-86
2022/01/06 03:48:34;;;;;;;4.60;1.98;;;0.40;99.90;;;;;;5020358;28;20034;-87
2022/01/06 03:51:00;;;;;;;7.43;1.77;;;0.40;99.90;;;;;;5003638;28;20073;-86
2022/01/06 03:53:26;;;;;;;3.65;1.75;;;0.40;99.90;;;;;;5023588;28;20133;-87
2022/01/06 03:55:52;;;;;;;4.03;1.60;;;0.40;99.90;;;;;;4994239;28;20560;-87
2022/01/06 03:58:18;;;;;;;4.13;1.75;;;0.40;99.90;;;;;;5036204;28;20184;-85
2022/01/06 04:00:43;;;;;;;2.78;1.73;;;0.40;99.90;;;;;;5031928;28;20041;-84
2022/01/06 04:03:09;;;;;;;3.63;2.78;;;0.40;99.90;;;;;;5035487;28;20070;-86
2022/01/06 04:05:35;;;;;;;4.82;2.10;;;0.40;99.90;;;;;;5022326;28;20026;-86
2022/01/06 04:08:01;;;;;;;3.65;2.75;;;0.50;99.90;;;;;;4981581;28;20046;-87
2022/01/06 04:10:27;;;;;;;5.70;2.40;;;0.40;99.90;;;;;;4977532;28;20045;-85
2022/01/06 04:12:53;;;;;;;8.75;2.58;;;0.50;99.90;;;;;;4981107;28;20030;-85
2022/01/06 04:15:23;;;;;;;7.30;2.55;;;0.50;99.90;;;;;;4983459;28;20440;-87
2022/01/06 04:17:49;;;;;;;5.82;2.88;;;0.50;99.90;;;;;;4989728;28;20073;-86
2022/01/06 04:20:17;;;;;;;7.70;3.17;;;0.50;99.90;;;;;;4992963;28;20047;-86
2022/01/06 04:22:43;;;;;;;4.25;2.42;;;0.50;99.90;;;;;;4988429;28;20046;-87
2022/01/06 04:25:12;;;;;;;6.65;2.60;;;0.50;99.90;;;;;;4977881;28;20111;-86
2022/01/06 04:27:38;;;;;;;7.40;3.38;;;0.50;99.90;;;;;;4977368;28;20042;-86
2022/01/06 04:30:05;;;;;;;7.18;3.28;;;0.50;99.90;;;;;;4977470;28;20597;-84
2022/01/06 04:32:32;;;;;;;6.07;3.60;;;0.50;99.90;;;;;;4976798;28;20118;-85
2022/01/06 04:34:58;;;;;;;7.50;3.13;;;0.50;99.90;;;;;;4976820;28;20090;-85
2022/01/06 04:37:26;;;;;;;6.22;3.05;;;0.50;99.90;;;;;;4978417;28;20161;-86
2022/01/06 04:39:51;;;;;;;5.28;3.10;;;0.50;99.90;;;;;;5001632;28;20411;-86
2022/01/06 04:42:17;;;;;;;8.98;3.30;;;0.50;99.90;;;;;;5004732;28;20054;-86
2022/01/06 04:44:43;;;;;;;5.07;3.30;;;0.50;99.90;;;;;;5005073;28;20483;-87
2022/01/06 04:47:09;;;;;;;11.82;3.20;;;0.50;99.90;;;;;;5005845;28;20053;-86
2022/01/06 04:49:34;;;;;;;5.82;3.53;;;0.50;99.90;;;;;;5013849;28;20053;-85
2022/01/06 04:52:01;;;;;;;7.55;2.97;;;0.50;99.90;;;;;;5027800;28;20118;-88
2022/01/06 04:54:27;;;;;;;8.27;3.20;;;0.50;99.90;;;;;;5005263;28;20037;-87
2022/01/06 04:56:53;;;;;;;6.88;3.13;;;0.50;99.90;;;;;;4997834;28;20432;-86
2022/01/06 04:59:18;;;;;;;5.78;2.80;;;0.50;99.90;;;;;;4983747;28;20033;-83
2022/01/06 05:01:44;;;;;;;9.60;3.28;;;0.50;99.90;;;;;;4978434;28;20027;-85
2022/01/06 05:04:10;;;;;;;8.50;2.65;;;0.50;99.90;;;;;;4981782;28;20042;-87
2022/01/06 05:06:36;;;;;;;16.02;3.65;;;0.50;99.90;;;;;;4980678;28;20460;-86
2022/01/06 05:09:02;;;;;;;8.23;2.38;;;0.50;99.90;;;;;;4980760;28;20046;-87
2022/01/06 05:11:28;;;;;;;10.07;2.75;;;0.50;99.90;;;;;;5013452;28;20025;-86
2022/01/06 05:13:54;;;;;;;7.07;2.72;;;0.50;99.90;;;;;;4996064;28;20031;-87
2022/01/06 05:16:21;;;;;;;14.95;3.97;;;0.50;99.90;;;;;;4997944;28;20023;-86
2022/01/06 05:18:47;;;;;;;7.95;3.00;;;0.50;99.90;;;;;;4996969;28;20031;-85
2022/01/06 05:21:13;;;;;;;8.25;3.55;;;0.50;99.90;;;;;;4996487;28;20031;-87
2022/01/06 05:23:40;;;;;;;3.72;2.60;;;0.50;99.90;;;;;;5007552;28;20073;-88
2022/01/06 05:26:07;;;;;;;6.25;2.95;;;0.50;99.90;;;;;;5000871;28;20019;-85
2022/01/06 05:28:33;;;;;;;6.47;3.08;;;0.60;99.90;;;;;;4999943;28;20030;-86
2022/01/06 05:30:59;;;;;;;8.73;2.95;;;0.50;99.90;;;;;;5007411;28;20034;-87
2022/01/06 05:33:26;;;;;;;5.88;3.38;;;0.50;99.90;;;;;;4986802;28;20019;-85
2022/01/06 05:35:52;;;;;;;8.43;3.35;;;0.60;99.90;;;;;;4988575;28;20015;-85
2022/01/06 05:38:18;;;;;;;9.85;3.85;;;0.60;99.90;;;;;;4989462;28;20038;-83
2022/01/06 05:40:43;;;;;;;6.22;2.95;;;0.60;99.90;;;;;;4978852;28;20421;-85
2022/01/06 05:43:09;;;;;;;5.78;2.97;;;0.60;99.90;;;;;;4981653;28;20404;-85
2022/01/06 05:45:35;;;;;;;6.80;4.30;;;0.60;99.90;;;;;;4992417;28;20027;-87
2022/01/06 05:48:01;;;;;;;8.63;4.20;;;0.60;99.90;;;;;;4998685;28;20058;-87
2022/01/06 05:50:27;;;;;;;8.85;4.97;;;0.60;99.90;;;;;;4991737;28;20054;-86
2022/01/06 05:52:54;;;;;;;6.50;3.60;;;0.60;99.90;;;;;;4991931;28;20339;-85
2022/01/06 05:55:21;;;;;;;6.72;3.95;;;0.60;99.90;;;;;;4975436;28;20105;-85
2022/01/06 05:57:50;;;;;;;5.38;3.40;;;0.60;99.90;;;;;;4975071;28;20408;-86
2022/01/06 06:00:26;;;;;;;;;;;;;;;;;;;;;
2022/01/06 06:02:52;;;;;;;11.35;3.78;;;0.60;99.90;;;;;;4975762;28;20034;-83
2022/01/06 06:05:24;;;;;;;5.93;4.03;;;0.60;99.90;;;;;;4975801;28;20536;-83
2022/01/06 06:07:56;;;;;;;10.50;6.97;;;0.60;99.90;;;;;;4975323;28;20850;-82
2022/01/06 06:10:22;;;;;;;8.35;4.03;;;0.70;99.90;;;;;;4990856;28;20026;-84
2022/01/06 06:12:52;;;;;;;9.23;4.22;;;0.60;99.90;;;;;;4998864;28;20030;-87
2022/01/06 06:15:25;;;;;;;7.15;4.00;;;0.60;99.90;;;;;;4998997;28;20525;-87
2022/01/06 06:17:50;;;;;;;9.68;5.50;;;0.70;99.90;;;;;;4999653;28;20092;-86
2022/01/06 06:20:16;;;;;;;8.38;6.60;;;0.60;99.90;;;;;;4997602;28;20031;-85
2022/01/06 06:22:47;;;;;;;13.15;10.27;;;0.60;99.90;;;;;;4983906;28;20495;-87
2022/01/06 06:25:13;;;;;;;11.50;7.22;;;0.70;99.90;;;;;;4976475;28;20022;-89
2022/01/06 06:27:39;;;;;;;11.68;7.35;;;0.70;99.90;;;;;;4977737;28;20042;-85
2022/01/06 06:30:05;;;;;;;10.30;5.10;;;0.70;99.90;;;;;;4983651;28;20023;-82
2022/01/06 06:32:39;;;;;;;12.45;5.85;;;0.60;99.90;;;;;;5003318;28;20412;-84
2022/01/06 06:35:07;;;;;;;17.25;5.47;;;0.60;99.90;;;;;;4994343;28;20033;-85
2022/01/06 06:37:32;;;;;;;;;;;0.70;99.90;;;;;;4995582;28;20014;-85
2022/01/06 06:40:02;;;;;;;9.48;4.68;;;0.70;99.90;;;;;;4993952;28;20470;-84
2022/01/06 06:42:28;;;;;;;9.65;5.07;;;0.70;99.90;;;;;;4994518;28;20026;-84
2022/01/06 06:44:54;;;;;;;11.53;4.73;;;0.70;99.90;;;;;;4996360;28;20034;-84
2022/01/06 06:47:26;;;;;;;12.95;6.30;;;0.70;99.90;;;;;;4975701;28;20050;-83
2022/01/06 06:49:55;;;;;;;10.63;5.28;;;0.70;99.90;;;;;;4975787;28;20085;-85
2022/01/06 06:52:21;;;;;;;11.13;5.63;;;0.80;99.90;;;;;;4974824;28;20026;-84
2022/01/06 06:54:48;;;;;;;15.18;5.00;;;0.80;99.90;;;;;;4974903;28;20429;-83
2022/01/06 06:57:14;;;;;;;11.27;4.57;;;0.80;99.90;;;;;;4974403;28;20023;-83
2022/01/06 06:59:39;;;;;;;10.50;4.60;;;0.80;99.90;;;;;;4974174;28;20510;-84
2022/01/06 07:02:08;;;;;;;7.80;4.47;;;0.90;99.90;;;;;;4974211;28;20049;-84
2022/01/06 07:04:34;;;;;;;7.22;4.57;;;0.90;99.90;;;;;;4988962;28;20045;-85
2022/01/06 07:07:02;;;;;;;10.25;4.45;;;0.90;99.90;;;;;;4973649;28;20394;-84
2022/01/06 07:09:28;;;;;;;9.63;4.07;;;0.90;99.90;;;;;;4976758;28;20027;-85
2022/01/06 07:11:54;;;;;;;7.22;4.20;;;0.90;99.90;;;;;;4994443;28;20026;-84
2022/01/06 07:14:20;;;;;;;10.32;4.88;;;1.00;99.90;;;;;;4997592;28;20033;-83
2022/01/06 07:16:45;;;;;;;7.07;5.10;;;0.90;99.90;;;;;;4996339;28;20042;-84
2022/01/06 07:19:11;;;;;;;19.08;5.25;;;1.00;99.90;;;;;;4994745;28;20026;-82
2022/01/06 07:22:16;;;;;;;10.93;4.43;;;1.00;99.90;;;;;;4993798;28;20022;-81
2022/01/06 07:24:36;;;;;;;8.45;4.65;;;0.90;99.90;;;;;;4994883;28;20054;-82
2022/01/06 07:27:03;;;;;;;8.80;5.00;;;0.80;99.90;;;;;;4993159;28;20042;-81
2022/01/06 07:29:29;;;;;;;8.40;5.47;;;0.80;99.90;;;;;;4993256;28;20045;-82
2022/01/06 07:31:55;;;;;;;10.85;5.20;;;0.80;99.90;;;;;;4992677;28;20019;-81
2022/01/06 07:34:23;;;;;;;9.68;5.25;;;0.80;99.90;;;;;;4991516;28;20042;-83
2022/01/06 07:36:53;;;;;;;8.57;4.63;;;0.80;99.90;;;;;;4991728;28;20030;-82
2022/01/06 07:39:18;;;;;;;9.07;5.28;;;0.90;99.90;;;;;;4996987;28;20053;-83
2022/01/06 07:41:53;;;;;;;10.05;6.45;;;0.90;99.90;;;;;;4994374;28;20050;-84
2022/01/06 07:44:19;;;;;;;11.38;5.80;;;1.00;99.90;;;;;;4993409;28;20154;-83
2022/01/06 07:46:46;;;;;;;10.88;6.75;;;1.10;99.90;;;;;;4994177;28;20431;-83
2022/01/06 07:49:13;;;;;;;17.10;6.72;;;1.20;99.90;;;;;;4993940;28;20023;-84
2022/01/06 07:51:39;;;;;;;17.98;8.00;;;1.20;99.90;;;;;;4993537;28;20027;-84
2022/01/06 07:54:05;;;;;;;17.42;7.57;;;1.30;99.90;;;;;;4998721;28;20038;-82
2022/01/06 07:56:31;;;;;;;12.93;7.28;;;1.30;99.90;;;;;;4998496;28;20050;-81
2022/01/06 07:58:57;;;;;;;17.58;10.23;;;1.30;99.90;;;;;;5000927;28;20546;-81
2022/01/06 08:01:26;;;;;;;18.02;7.40;;;1.40;99.90;;;;;;4997546;28;20098;-82
2022/01/06 08:03:52;;;;;;;9.95;6.43;;;1.30;99.90;;;;;;4992140;28;20391;-83
2022/01/06 08:06:19;;;;;;;12.07;6.43;;;1.30;99.90;;;;;;4993048;28;20142;-83
2022/01/06 08:08:45;;;;;;;10.63;7.77;;;1.30;99.90;;;;;;4994624;28;20364;-83
2022/01/06 08:11:12;;;;;;;14.00;7.68;;;1.30;99.90;;;;;;4994716;28;20038;-79
2022/01/06 08:13:44;;;;;;;13.77;8.30;;;1.30;99.90;;;;;;4989610;28;20025;-81
2022/01/06 08:16:21;;;;;;;11.88;7.13;;;1.20;99.90;;;;;;4980225;28;20280;-81
2022/01/06 08:18:47;;;;;;;;;;;1.20;99.90;;;;;;4993879;28;20411;-83
2022/01/06 08:21:13;;;;;;;13.40;8.00;;;1.20;99.90;;;;;;4986616;28;19912;-80
2022/01/06 08:23:39;;;;;;;14.05;7.68;;;1.20;99.90;;;;;;4995135;28;20045;-80
2022/01/06 08:26:05;;;;;;;19.40;7.40;;;1.30;99.90;;;;;;4989092;28;20507;-80
2022/01/06 08:28:31;;;;;;;20.08;8.98;;;1.30;99.90;;;;;;4987686;28;20117;-81
2022/01/06 08:30:57;;;;;;;13.98;8.43;;;1.30;99.90;;;;;;4993430;28;20116;-80
2022/01/06 08:33:23;;;;;;;12.73;9.25;;;1.40;99.90;;;;;;4989793;28;20018;-80
2022/01/06 08:35:49;;;;;;;14.20;9.00;;;1.50;99.90;;;;;;5001527;28;20135;-79
2022/01/06 08:38:15;;;;;;;14.68;9.68;;;1.50;99.90;;;;;;5002946;28;20052;-78
2022/01/06 08:40:41;;;;;;;12.65;8.13;;;1.50;99.90;;;;;;4990987;28;20046;-82
2022/01/06 08:43:07;;;;;;;14.98;9.10;;;1.50;99.90;;;;;;4983595;28;20098;-80
2022/01/06 08:45:32;;;;;;;16.48;9.55;;;1.60;99.90;;;;;;4989804;28;20045;-79
2022/01/06 08:47:59;;;;;;;16.90;9.60;;;1.60;99.90;;;;;;4981303;28;20031;-80
2022/01/06 08:50:25;;;;;;;14.73;9.30;;;1.60;99.90;;;;;;4988584;28;20019;-80
2022/01/06 08:52:51;;;;;;;18.10;9.45;;;1.60;99.90;;;;;;4977416;28;20074;-82
2022/01/06 08:55:17;;;;;;;13.23;9.35;;;1.60;99.90;;;;;;4992365;28;20476;-83
2022/01/06 08:57:42;;;;;;;16.50;8.85;;;1.60;99.90;;;;;;4986751;28;20084;-81
2022/01/06 09:00:11;;;;;;;14.07;8.20;;;1.60;99.90;;;;;;4986668;28;20387;-88
2022/01/06 09:02:37;;;;;;;15.25;8.93;;;1.60;99.90;;;;;;4984166;28;20025;-84
2022/01/06 09:05:06;;;;;;;11.13;7.30;;;1.60;99.90;;;;;;4996201;28;20038;-87
2022/01/06 09:07:35;;;;;;;13.55;8.13;;;1.60;99.90;;;;;;4996010;28;20042;-87
2022/01/06 09:10:01;;;;;;;14.50;9.15;;;1.60;99.90;;;;;;4996229;28;20037;-88
2022/01/06 09:12:28;;;;;;;14.75;8.55;;;1.60;99.90;;;;;;4997200;28;20034;-82
2022/01/06 09:14:54;;;;;;;14.82;9.27;;;1.60;99.90;;;;;;4993013;28;20027;-84
2022/01/06 09:17:22;;;;;;;12.52;6.95;;;1.60;99.90;;;;;;4984949;28;20035;-84
2022/01/06 09:19:49;;;;;;;17.50;8.23;;;1.60;99.90;;;;;;4997441;28;20033;-82
2022/01/06 09:22:24;;;;;;;14.57;8.07;;;1.60;99.90;;;;;;5000570;28;20033;-84
2022/01/06 09:24:53;;;;;;;14.30;8.25;;;1.70;99.90;;;;;;4995155;28;20462;-81
2022/01/06 09:27:23;;;;;;;11.20;7.38;;;1.70;99.90;;;;;;4995572;28;20447;-83
2022/01/06 09:29:52;;;;;;;18.02;9.23;;;1.80;99.90;;;;;;4995977;28;20105;-79
2022/01/06 09:32:23;;;;;;;8.90;5.57;;;1.80;99.90;;;;;;4996286;28;20106;-83
2022/01/06 09:34:49;;;;;;;13.23;6.85;;;1.70;99.90;;;;;;4996822;28;20058;-82
2022/01/06 09:37:16;;;;;;;11.85;6.78;;;1.80;99.90;;;;;;4989369;28;20388;-83
2022/01/06 09:39:42;;;;;;;11.45;7.25;;;1.70;99.90;;;;;;4976078;28;20023;-82
2022/01/06 09:42:08;;;;;;;13.73;6.30;;;1.70;99.90;;;;;;4990740;28;20057;-85
2022/01/06 09:44:35;;;;;;;11.50;7.13;;;1.70;99.90;;;;;;4993389;28;20395;-82
2022/01/06 09:47:02;;;;;;;11.45;7.22;;;1.80;99.90;;;;;;4995824;28;20018;-83
2022/01/06 09:49:28;;;;;;;9.03;5.97;;;1.80;99.90;;;;;;5003553;28;20034;-81
2022/01/06 09:51:54;;;;;;;11.50;6.75;;;1.80;99.90;;;;;;5002675;28;20105;-83
2022/01/06 09:54:20;;;;;;;12.15;6.38;;;1.80;99.90;;;;;;4993541;28;20055;-81
2022/01/06 09:56:45;;;;;;;10.95;6.32;;;1.80;99.90;;;;;;4994526;28;20130;-78
2022/01/06 09:59:18;;;;;;;10.88;5.32;;;1.80;99.90;;;;;;4995280;28;20458;-83
2022/01/06 10:01:43;;;;;;;13.93;7.32;;;1.70;99.90;;;;;;4996237;28;20026;-81
2022/01/06 10:04:30;;;;;;;12.63;6.68;;;1.70;99.90;;;;;;4983635;28;20066;-82
2022/01/06 10:07:09;;;;;;;9.03;5.63;;;1.80;99.90;;;;;;5001425;28;20052;-82
2022/01/06 10:09:38;;;;;;;14.00;7.50;;;1.80;99.90;;;;;;4999406;28;20044;-80
2022/01/06 10:12:11;;;;;;;10.68;6.72;;;1.90;99.90;;;;;;4995002;28;20022;-83
2022/01/06 10:14:50;;;;;;;10.88;6.43;;;1.90;99.90;;;;;;5009583;28;20072;-84
2022/01/06 10:17:27;;;;;;;13.68;6.57;;;1.90;99.90;;;;;;4993067;28;20022;-83
2022/01/06 10:19:54;;;;;;;11.85;6.95;;;1.90;99.90;;;;;;4982426;28;20559;-83
2022/01/06 10:22:21;;;;;;;7.55;5.40;;;1.80;99.90;;;;;;4974177;28;20033;-82
2022/01/06 10:24:50;;;;;;;11.07;6.68;;;1.80;99.90;;;;;;4974549;28;20070;-83
2022/01/06 10:27:20;;;;;;;11.40;6.18;;;1.80;99.90;;;;;;4992262;28;20719;-84
2022/01/06 10:29:51;;;;;;;12.90;7.18;;;1.80;99.90;;;;;;4976891;28;20064;-83
2022/01/06 10:32:24;;;;;;;10.00;6.15;;;1.90;99.90;;;;;;4977243;28;20073;-83
2022/01/06 10:35:02;;;;;;;10.52;5.93;;;1.90;99.90;;;;;;4974275;28;20019;-85
2022/01/06 10:37:40;;;;;;;12.88;5.72;;;2.00;99.90;;;;;;4974497;28;20047;-82
2022/01/06 10:40:10;;;;;;;;;;;1.90;99.90;;;;;;4981109;28;20042;-86
2022/01/06 10:42:39;;;;;;;12.05;6.82;;;1.90;99.90;;;;;;4975477;28;19917;-82
2022/01/06 10:45:16;;;;;;;9.80;5.63;;;2.00;99.90;;;;;;4974768;28;20396;-83
2022/01/06 10:47:44;;;;;;;11.02;6.82;;;2.00;99.90;;;;;;4990316;28;20114;-83
2022/01/06 10:50:23;;;;;;;14.93;6.82;;;1.90;99.90;;;;;;4977601;28;20042;-82
2022/01/06 10:53:01;;;;;;;13.00;7.18;;;1.90;99.90;;;;;;4974812;28;20389;-86
2022/01/06 10:55:32;;;;;;;15.65;6.90;;;1.90;99.90;;;;;;4974537;28;20054;-83
2022/01/06 10:58:02;;;;;;;14.95;6.45;;;1.90;99.90;;;;;;4973915;28;20022;-83
2022/01/06 11:00:38;;;;;;;11.70;7.28;;;1.90;99.90;;;;;;4989392;28;20038;-81
2022/01/06 11:03:28;;;;;;;12.63;6.82;;;1.90;99.90;;;;;;4989111;28;20114;-84
2022/01/06 11:05:59;;;;;;;12.15;6.30;;;1.90;99.90;;;;;;4974143;28;20025;-87
2022/01/06 11:08:29;;;;;;;15.18;7.57;;;1.90;99.90;;;;;;4974965;28;20062;-81
2022/01/06 11:13:38;;;;;;;14.90;8.05;;;1.90;99.90;;;;;;4998756;28;20387;-81
2022/01/06 11:16:05;;;;;;;12.25;6.63;;;1.90;99.90;;;;;;4997557;28;20084;-83
2022/01/06 11:18:32;;;;;;;18.50;7.70;;;1.90;99.90;;;;;;4991120;28;20069;-84
2022/01/06 11:21:12;;;;;;;16.15;7.13;;;1.90;99.90;;;;;;4976367;28;20030;-85
2022/01/06 11:23:39;;;;;;;11.20;7.25;;;1.90;99.90;;;;;;4975162;28;20071;-82
2022/01/06 11:26:11;;;;;;;17.70;8.63;;;1.90;99.90;;;;;;4975856;28;20018;-81
2022/01/06 11:28:37;;;;;;;13.13;7.20;;;1.90;99.90;;;;;;4976141;28;20122;-82
2022/01/06 11:31:18;;;;;;;13.00;7.97;;;1.90;99.90;;;;;;4994613;28;20019;-82
2022/01/06 11:33:47;;;;;;;15.93;7.47;;;2.00;99.90;;;;;;4974324;28;20030;-81
2022/01/06 11:36:26;;;;;;;14.77;6.63;;;2.00;99.90;;;;;;4974293;28;20481;-84
2022/01/06 11:38:53;;;;;;;13.43;7.03;;;1.90;99.90;;;;;;4974591;28;20388;-83
2022/01/06 11:41:19;;;;;;;13.40;7.80;;;1.90;99.90;;;;;;4974419;28;20093;-83
2022/01/06 11:43:47;;;;;;;10.70;7.32;;;1.90;99.90;;;;;;4974391;28;20043;-83
2022/01/06 11:46:13;;;;;;;;;;;1.80;99.90;;;;;;4974432;28;20019;-83
2022/01/06 11:48:54;;;;;;;10.63;7.00;;;1.80;99.90;;;;;;4974095;28;19918;-82
2022/01/06 11:51:31;;;;;;;11.85;6.57;;;1.80;99.90;;;;;;4978339;28;20118;-81
2022/01/06 11:53:57;;;;;;;;;;;1.70;99.90;;;;;;4988401;28;20027;-82
2022/01/06 11:56:24;;;;;;;8.43;5.70;;;1.70;99.90;;;;;;4998231;28;19949;-82
2022/01/06 11:58:58;;;;;;;14.63;7.18;;;1.70;99.90;;;;;;4999579;28;20092;-81
2022/01/06 12:01:24;;;;;;;14.65;7.20;;;1.70;99.90;;;;;;4980439;28;20078;-81
2022/01/06 12:03:50;;;;;;;12.38;6.03;;;1.80;99.90;;;;;;4977547;28;20035;-84
2022/01/06 12:06:31;;;;;;;10.57;6.93;;;1.80;99.90;;;;;;4977552;28;20476;-84
2022/01/06 12:08:58;;;;;;;9.65;5.97;;;1.90;99.90;;;;;;4978447;28;20137;-83
2022/01/06 12:11:27;;;;;;;7.60;5.93;;;1.90;99.90;;;;;;4997911;28;20106;-83
2022/01/06 12:13:55;;;;;;;12.90;6.03;;;1.80;99.90;;;;;;5008478;28;20026;-85
2022/01/06 12:16:33;;;;;;;11.65;6.60;;;1.80;99.90;;;;;;5010330;28;20030;-84
2022/01/06 12:19:01;;;;;;;12.27;5.85;;;1.80;99.90;;;;;;5005163;28;20019;-82
2022/01/06 12:21:28;;;;;;;15.05;6.50;;;1.80;99.90;;;;;;4998464;28;20018;-84
2022/01/06 12:24:05;;;;;;;17.08;6.40;;;1.80;99.90;;;;;;4998663;28;20392;-85
2022/01/06 12:26:32;;;;;;;12.43;6.25;;;1.80;99.90;;;;;;4998510;28;20384;-87
2022/01/06 12:28:59;;;;;;;13.43;6.47;;;1.80;99.90;;;;;;4998611;28;20534;-86
2022/01/06 12:31:30;;;;;;;13.52;5.70;;;1.80;99.90;;;;;;4999562;28;20077;-84
2022/01/06 12:34:02;;;;;;;10.80;5.63;;;1.90;99.90;;;;;;4998214;28;20035;-86
2022/01/06 12:36:33;;;;;;;11.05;6.80;;;1.90;99.90;;;;;;4997134;28;20018;-84
2022/01/06 12:39:06;;;;;;;12.55;7.57;;;1.90;99.90;;;;;;4999176;28;20109;-85
2022/01/06 12:41:34;;;;;;;14.95;8.25;;;1.90;99.90;;;;;;4997825;28;20046;-84
2022/01/06 12:44:00;;;;;;;;;;;1.90;99.90;;;;;;4999058;28;20114;-83
2022/01/06 12:46:43;;;;;;;13.57;7.00;;;1.90;99.90;;;;;;4996807;28;19910;-82
2022/01/06 12:49:12;;;;;;;13.75;6.35;;;1.90;99.90;;;;;;4997165;28;20030;-82
2022/01/06 12:51:44;;;;;;;14.80;6.80;;;1.80;99.90;;;;;;5012075;28;20030;-81
2022/01/06 12:54:19;;;;;;;16.02;6.88;;;1.80;99.90;;;;;;4997972;28;20023;-84
2022/01/06 12:56:54;;;;;;;13.45;6.68;;;1.80;99.90;;;;;;5007400;28;20068;-89
2022/01/06 12:59:37;;;;;;;11.90;7.30;;;1.80;99.90;;;;;;5005566;28;20034;-87
2022/01/06 13:02:14;;;;;;;17.88;7.88;;;1.80;99.80;;;;;;5001618;28;20026;-86
2022/01/06 13:04:42;;;;;;;;;;;1.80;99.70;;;;;;5019883;28;20073;-86
2022/01/06 13:07:13;;;;;;;19.33;10.15;;;1.80;99.80;;;;;;4998264;28;19909;-90
2022/01/06 13:09:43;;;;;;;15.52;9.32;;;1.70;99.80;;;;;;4998744;28;20026;-87
2022/01/06 13:12:32;;;;;;;17.25;8.45;;;1.70;99.70;;;;;;4997229;28;20066;-86